sensor_id;sensor_type;location;lat;lon;timestamp;P1;durP1;ratioP1;P2;durP2;ratioP2
72123;SDS011;63818;37.134;-8.548;2023-01-04T00:01:01;-1.0;;;-1.0;;
72123;SDS011;63818;37.134;-8.548;2023-01-04T00:05:55;-1.0;;;-1.0;;
72123;SDS011;63818;37.134;-8.548;2023-01-04T00:10:45;-1.0;;;-1.0;;
72123;SDS011;63818;37.134;-8.548;2023-01-04T00:15:34;-1.0;;;-1.0;;
72123;SDS011;63818;37.134;-8.548;2023-01-04T00:20:24;-1.0;;;-1.0;;
72123;SDS011;63818;37.134;-8.548;2023-01-04T00:25:13;-1.0;;;-1.0;;
72123;SDS011;63818;37.134;-8.548;2023-01-04T00:30:06;-1.0;;;-1.0;;
72123;SDS011;63818;37.134;-8.548;2023-01-04T00:34:55;-1.0;;;-1.0;;
72123;SDS011;63818;37.134;-8.548;2023-01-04T00:39:43;-1.0;;;-1.0;;
72123;SDS011;63818;37.134;-8.548;2023-01-04T00:44:32;-1.0;;;-1.0;;
72123;SDS011;63818;37.134;-8.548;2023-01-04T00:49:22;-1.0;;;-1.0;;
72123;SDS011;63818;37.134;-8.548;2023-01-04T00:54:12;-1.0;;;-1.0;;
72123;SDS011;63818;37.134;-8.548;2023-01-04T00:59:04;-1.0;;;-1.0;;
72123;SDS011;63818;37.134;-8.548;2023-01-04T01:03:53;-1.0;;;-1.0;;
72123;SDS011;63818;37.134;-8.548;2023-01-04T01:08:43;-1.0;;;-1.0;;
72123;SDS011;63818;37.134;-8.548;2023-01-04T01:13:34;-1.0;;;-1.0;;
72123;SDS011;63818;37.134;-8.548;2023-01-04T01:18:24;-1.0;;;-1.0;;
72123;SDS011;63818;37.134;-8.548;2023-01-04T01:23:13;-1.0;;;-1.0;;
72123;SDS011;63818;37.134;-8.548;2023-01-04T01:28:04;-1.0;;;-1.0;;
72123;SDS011;63818;37.134;-8.548;2023-01-04T01:32:53;-1.0;;;-1.0;;
72123;SDS011;63818;37.134;-8.548;2023-01-04T01:37:41;-1.0;;;-1.0;;
72123;SDS011;63818;37.134;-8.548;2023-01-04T01:42:30;-1.0;;;-1.0;;
72123;SDS011;63818;37.134;-8.548;2023-01-04T01:47:21;-1.0;;;-1.0;;
72123;SDS011;63818;37.134;-8.548;2023-01-04T01:52:13;-1.0;;;-1.0;;
72123;SDS011;63818;37.134;-8.548;2023-01-04T01:57:06;-1.0;;;-1.0;;
72123;SDS011;63818;37.134;-8.548;2023-01-04T02:01:59;-1.0;;;-1.0;;
72123;SDS011;63818;37.134;-8.548;2023-01-04T02:06:51;-1.0;;;-1.0;;
72123;SDS011;63818;37.134;-8.548;2023-01-04T02:11:43;-1.0;;;-1.0;;
72123;SDS011;63818;37.134;-8.548;2023-01-04T02:16:43;-1.0;;;-1.0;;
72123;SDS011;63818;37.134;-8.548;2023-01-04T02:21:43;-1.0;;;-1.0;;
72123;SDS011;63818;37.134;-8.548;2023-01-04T02:31:54;-1.0;;;-1.0;;
72123;SDS011;63818;37.134;-8.548;2023-01-04T02:36:47;-1.0;;;-1.0;;
72123;SDS011;63818;37.134;-8.548;2023-01-04T02:41:42;-1.0;;;-1.0;;
72123;SDS011;63818;37.134;-8.548;2023-01-04T02:46:35;-1.0;;;-1.0;;
72123;SDS011;63818;37.134;-8.548;2023-01-04T02:51:31;-1.0;;;-1.0;;
72123;SDS011;63818;37.134;-8.548;2023-01-04T02:56:22;-1.0;;;-1.0;;
72123;SDS011;63818;37.134;-8.548;2023-01-04T03:01:18;-1.0;;;-1.0;;
72123;SDS011;63818;37.134;-8.548;2023-01-04T03:06:22;-1.0;;;-1.0;;
72123;SDS011;63818;37.134;-8.548;2023-01-04T03:11:17;-1.0;;;-1.0;;
72123;SDS011;63818;37.134;-8.548;2023-01-04T03:16:06;-1.0;;;-1.0;;
72123;SDS011;63818;37.134;-8.548;2023-01-04T03:20:59;-1.0;;;-1.0;;
72123;SDS011;63818;37.134;-8.548;2023-01-04T03:25:52;-1.0;;;-1.0;;
72123;SDS011;63818;37.134;-8.548;2023-01-04T03:30:50;-1.0;;;-1.0;;
72123;SDS011;63818;37.134;-8.548;2023-01-04T03:35:50;-1.0;;;-1.0;;
72123;SDS011;63818;37.134;-8.548;2023-01-04T03:40:50;-1.0;;;-1.0;;
72123;SDS011;63818;37.134;-8.548;2023-01-04T03:45:49;-1.0;;;-1.0;;
72123;SDS011;63818;37.134;-8.548;2023-01-04T03:50:42;-1.0;;;-1.0;;
72123;SDS011;63818;37.134;-8.548;2023-01-04T03:55:34;-1.0;;;-1.0;;
72123;SDS011;63818;37.134;-8.548;2023-01-04T04:00:25;-1.0;;;-1.0;;
72123;SDS011;63818;37.134;-8.548;2023-01-04T04:05:16;-1.0;;;-1.0;;
72123;SDS011;63818;37.134;-8.548;2023-01-04T04:10:05;-1.0;;;-1.0;;
72123;SDS011;63818;37.134;-8.548;2023-01-04T04:14:54;-1.0;;;-1.0;;
72123;SDS011;63818;37.134;-8.548;2023-01-04T04:19:43;-1.0;;;-1.0;;
72123;SDS011;63818;37.134;-8.548;2023-01-04T04:24:31;-1.0;;;-1.0;;
72123;SDS011;63818;37.134;-8.548;2023-01-04T04:29:20;-1.0;;;-1.0;;
72123;SDS011;63818;37.134;-8.548;2023-01-04T04:34:12;-1.0;;;-1.0;;
72123;SDS011;63818;37.134;-8.548;2023-01-04T04:39:03;-1.0;;;-1.0;;
72123;SDS011;63818;37.134;-8.548;2023-01-04T04:43:54;-1.0;;;-1.0;;
72123;SDS011;63818;37.134;-8.548;2023-01-04T04:48:43;-1.0;;;-1.0;;
72123;SDS011;63818;37.134;-8.548;2023-01-04T04:53:32;-1.0;;;-1.0;;
72123;SDS011;63818;37.134;-8.548;2023-01-04T04:58:22;-1.0;;;-1.0;;
72123;SDS011;63818;37.134;-8.548;2023-01-04T05:03:11;-1.0;;;-1.0;;
72123;SDS011;63818;37.134;-8.548;2023-01-04T05:07:59;-1.0;;;-1.0;;
72123;SDS011;63818;37.134;-8.548;2023-01-04T05:12:48;-1.0;;;-1.0;;
72123;SDS011;63818;37.134;-8.548;2023-01-04T05:17:36;-1.0;;;-1.0;;
72123;SDS011;63818;37.134;-8.548;2023-01-04T05:22:24;-1.0;;;-1.0;;
72123;SDS011;63818;37.134;-8.548;2023-01-04T05:27:13;-1.0;;;-1.0;;
72123;SDS011;63818;37.134;-8.548;2023-01-04T05:32:05;-1.0;;;-1.0;;
72123;SDS011;63818;37.134;-8.548;2023-01-04T05:36:57;-1.0;;;-1.0;;
72123;SDS011;63818;37.134;-8.548;2023-01-04T05:41:46;-1.0;;;-1.0;;
72123;SDS011;63818;37.134;-8.548;2023-01-04T05:46:34;-1.0;;;-1.0;;
72123;SDS011;63818;37.134;-8.548;2023-01-04T05:51:26;-1.0;;;-1.0;;
72123;SDS011;63818;37.134;-8.548;2023-01-04T05:56:15;-1.0;;;-1.0;;
72123;SDS011;63818;37.134;-8.548;2023-01-04T06:01:03;-1.0;;;-1.0;;
72123;SDS011;63818;37.134;-8.548;2023-01-04T06:05:54;-1.0;;;-1.0;;
72123;SDS011;63818;37.134;-8.548;2023-01-04T06:10:43;-1.0;;;-1.0;;
72123;SDS011;63818;37.134;-8.548;2023-01-04T06:15:32;-1.0;;;-1.0;;
72123;SDS011;63818;37.134;-8.548;2023-01-04T06:20:20;-1.0;;;-1.0;;
72123;SDS011;63818;37.134;-8.548;2023-01-04T06:25:11;-1.0;;;-1.0;;
72123;SDS011;63818;37.134;-8.548;2023-01-04T06:30:00;-1.0;;;-1.0;;
72123;SDS011;63818;37.134;-8.548;2023-01-04T06:34:51;-1.0;;;-1.0;;
72123;SDS011;63818;37.134;-8.548;2023-01-04T06:39:42;-1.0;;;-1.0;;
72123;SDS011;63818;37.134;-8.548;2023-01-04T06:44:30;-1.0;;;-1.0;;
72123;SDS011;63818;37.134;-8.548;2023-01-04T06:49:22;-1.0;;;-1.0;;
72123;SDS011;63818;37.134;-8.548;2023-01-04T06:54:11;-1.0;;;-1.0;;
72123;SDS011;63818;37.134;-8.548;2023-01-04T06:59:00;-1.0;;;-1.0;;
72123;SDS011;63818;37.134;-8.548;2023-01-04T07:03:48;-1.0;;;-1.0;;
72123;SDS011;63818;37.134;-8.548;2023-01-04T07:08:37;-1.0;;;-1.0;;
72123;SDS011;63818;37.134;-8.548;2023-01-04T07:13:27;-1.0;;;-1.0;;
72123;SDS011;63818;37.134;-8.548;2023-01-04T07:18:16;-1.0;;;-1.0;;
72123;SDS011;63818;37.134;-8.548;2023-01-04T07:23:05;-1.0;;;-1.0;;
72123;SDS011;63818;37.134;-8.548;2023-01-04T07:27:55;-1.0;;;-1.0;;
72123;SDS011;63818;37.134;-8.548;2023-01-04T07:32:48;-1.0;;;-1.0;;
72123;SDS011;63818;37.134;-8.548;2023-01-04T07:37:37;-1.0;;;-1.0;;
72123;SDS011;63818;37.134;-8.548;2023-01-04T07:42:26;-1.0;;;-1.0;;
72123;SDS011;63818;37.134;-8.548;2023-01-04T07:47:15;-1.0;;;-1.0;;
72123;SDS011;63818;37.134;-8.548;2023-01-04T07:52:03;-1.0;;;-1.0;;
72123;SDS011;63818;37.134;-8.548;2023-01-04T07:57:00;-1.0;;;-1.0;;
72123;SDS011;63818;37.134;-8.548;2023-01-04T08:01:49;-1.0;;;-1.0;;
72123;SDS011;63818;37.134;-8.548;2023-01-04T08:06:41;-1.0;;;-1.0;;
72123;SDS011;63818;37.134;-8.548;2023-01-04T08:11:30;-1.0;;;-1.0;;
72123;SDS011;63818;37.134;-8.548;2023-01-04T08:16:23;-1.0;;;-1.0;;
72123;SDS011;63818;37.134;-8.548;2023-01-04T08:21:13;-1.0;;;-1.0;;
72123;SDS011;63818;37.134;-8.548;2023-01-04T08:26:04;-1.0;;;-1.0;;
72123;SDS011;63818;37.134;-8.548;2023-01-04T08:30:55;-1.0;;;-1.0;;
72123;SDS011;63818;37.134;-8.548;2023-01-04T08:35:52;-1.0;;;-1.0;;
72123;SDS011;63818;37.134;-8.548;2023-01-04T08:40:41;-1.0;;;-1.0;;
72123;SDS011;63818;37.134;-8.548;2023-01-04T08:45:29;-1.0;;;-1.0;;
72123;SDS011;63818;37.134;-8.548;2023-01-04T08:50:18;-1.0;;;-1.0;;
72123;SDS011;63818;37.134;-8.548;2023-01-04T08:55:07;-1.0;;;-1.0;;
72123;SDS011;63818;37.134;-8.548;2023-01-04T08:59:56;-1.0;;;-1.0;;
72123;SDS011;63818;37.134;-8.548;2023-01-04T09:04:45;-1.0;;;-1.0;;
72123;SDS011;63818;37.134;-8.548;2023-01-04T09:09:34;-1.0;;;-1.0;;
72123;SDS011;63818;37.134;-8.548;2023-01-04T09:14:22;-1.0;;;-1.0;;
72123;SDS011;63818;37.134;-8.548;2023-01-04T09:19:11;-1.0;;;-1.0;;
72123;SDS011;63818;37.134;-8.548;2023-01-04T09:24:00;-1.0;;;-1.0;;
72123;SDS011;63818;37.134;-8.548;2023-01-04T09:28:54;-1.0;;;-1.0;;
72123;SDS011;63818;37.134;-8.548;2023-01-04T09:33:43;-1.0;;;-1.0;;
72123;SDS011;63818;37.134;-8.548;2023-01-04T09:38:33;-1.0;;;-1.0;;
72123;SDS011;63818;37.134;-8.548;2023-01-04T09:43:22;-1.0;;;-1.0;;
72123;SDS011;63818;37.134;-8.548;2023-01-04T09:48:17;-1.0;;;-1.0;;
72123;SDS011;63818;37.134;-8.548;2023-01-04T09:53:14;-1.0;;;-1.0;;
72123;SDS011;63818;37.134;-8.548;2023-01-04T09:58:11;-1.0;;;-1.0;;
72123;SDS011;63818;37.134;-8.548;2023-01-04T10:03:09;-1.0;;;-1.0;;
72123;SDS011;63818;37.134;-8.548;2023-01-04T10:08:11;-1.0;;;-1.0;;
72123;SDS011;63818;37.134;-8.548;2023-01-04T10:13:05;-1.0;;;-1.0;;
72123;SDS011;63818;37.134;-8.548;2023-01-04T10:18:08;-1.0;;;-1.0;;
72123;SDS011;63818;37.134;-8.548;2023-01-04T10:23:12;-1.0;;;-1.0;;
72123;SDS011;63818;37.134;-8.548;2023-01-04T10:28:12;-1.0;;;-1.0;;
72123;SDS011;63818;37.134;-8.548;2023-01-04T10:33:03;-1.0;;;-1.0;;
72123;SDS011;63818;37.134;-8.548;2023-01-04T10:37:59;-1.0;;;-1.0;;
72123;SDS011;63818;37.134;-8.548;2023-01-04T10:42:52;-1.0;;;-1.0;;
72123;SDS011;63818;37.134;-8.548;2023-01-04T10:47:57;-1.0;;;-1.0;;
72123;SDS011;63818;37.134;-8.548;2023-01-04T10:52:52;-1.0;;;-1.0;;
72123;SDS011;63818;37.134;-8.548;2023-01-04T10:57:48;-1.0;;;-1.0;;
72123;SDS011;63818;37.134;-8.548;2023-01-04T11:02:43;-1.0;;;-1.0;;
72123;SDS011;63818;37.134;-8.548;2023-01-04T11:07:42;-1.0;;;-1.0;;
72123;SDS011;63818;37.134;-8.548;2023-01-04T11:10:13;11.3;;;6.5;;
72123;SDS011;63818;37.134;-8.548;2023-01-04T11:15:04;10.4;;;6.3;;
72123;SDS011;63818;37.134;-8.548;2023-01-04T11:19:50;10.3;;;5.8;;
72123;SDS011;63818;37.134;-8.548;2023-01-04T11:24:46;13.0;;;5.9;;
72123;SDS011;63818;37.134;-8.548;2023-01-04T11:29:34;13.1;;;6.6;;
72123;SDS011;63818;37.134;-8.548;2023-01-04T11:34:42;10.6;;;6.6;;
72123;SDS011;63818;37.134;-8.548;2023-01-04T11:39:35;13.0;;;6.9;;
72123;SDS011;63818;37.134;-8.548;2023-01-04T11:44:23;18.0;;;8.1;;
72123;SDS011;63818;37.134;-8.548;2023-01-04T11:49:13;16.5;;;8.0;;
72123;SDS011;63818;37.134;-8.548;2023-01-04T11:54:04;16.5;;;7.8;;
72123;SDS011;63818;37.134;-8.548;2023-01-04T11:59:07;19.6;;;7.9;;
72123;SDS011;63818;37.134;-8.548;2023-01-04T12:03:56;16.9;;;7.6;;
72123;SDS011;63818;37.134;-8.548;2023-01-04T12:08:43;15.6;;;8.1;;
72123;SDS011;63818;37.134;-8.548;2023-01-04T12:13:29;16.4;;;9.2;;
72123;SDS011;63818;37.134;-8.548;2023-01-04T12:18:18;17.9;;;9.0;;
72123;SDS011;63818;37.134;-8.548;2023-01-04T12:23:11;17.3;;;8.1;;
72123;SDS011;63818;37.134;-8.548;2023-01-04T12:28:00;16.2;;;8.3;;
72123;SDS011;63818;37.134;-8.548;2023-01-04T12:32:51;15.8;;;8.2;;
72123;SDS011;63818;37.134;-8.548;2023-01-04T12:37:45;14.8;;;7.7;;
72123;SDS011;63818;37.134;-8.548;2023-01-04T12:42:31;13.5;;;8.0;;
72123;SDS011;63818;37.134;-8.548;2023-01-04T12:47:42;16.9;;;8.2;;
72123;SDS011;63818;37.134;-8.548;2023-01-04T12:52:37;16.9;;;7.6;;
72123;SDS011;63818;37.134;-8.548;2023-01-04T12:57:30;16.8;;;7.3;;
72123;SDS011;63818;37.134;-8.548;2023-01-04T13:02:21;17.9;;;7.5;;
72123;SDS011;63818;37.134;-8.548;2023-01-04T13:07:12;19.1;;;7.6;;
72123;SDS011;63818;37.134;-8.548;2023-01-04T13:12:05;17.2;;;7.3;;
72123;SDS011;63818;37.134;-8.548;2023-01-04T13:16:57;12.1;;;7.4;;
72123;SDS011;63818;37.134;-8.548;2023-01-04T13:21:51;12.7;;;7.3;;
72123;SDS011;63818;37.134;-8.548;2023-01-04T13:26:41;13.3;;;6.9;;
72123;SDS011;63818;37.134;-8.548;2023-01-04T13:31:28;14.9;;;6.8;;
72123;SDS011;63818;37.134;-8.548;2023-01-04T13:36:14;16.5;;;6.9;;
72123;SDS011;63818;37.134;-8.548;2023-01-04T13:41:16;13.9;;;6.6;;
72123;SDS011;63818;37.134;-8.548;2023-01-04T13:46:14;11.9;;;6.7;;
72123;SDS011;63818;37.134;-8.548;2023-01-04T13:51:03;11.9;;;6.8;;
72123;SDS011;63818;37.134;-8.548;2023-01-04T13:55:52;12.1;;;6.6;;
72123;SDS011;63818;37.134;-8.548;2023-01-04T14:00:42;12.7;;;7.3;;
72123;SDS011;63818;37.134;-8.548;2023-01-04T14:05:33;13.6;;;7.7;;
72123;SDS011;63818;37.134;-8.548;2023-01-04T14:10:19;14.4;;;7.5;;
72123;SDS011;63818;37.134;-8.548;2023-01-04T14:15:11;15.7;;;7.6;;
72123;SDS011;63818;37.134;-8.548;2023-01-04T14:20:03;17.5;;;7.8;;
72123;SDS011;63818;37.134;-8.548;2023-01-04T14:24:53;16.9;;;7.4;;
72123;SDS011;63818;37.134;-8.548;2023-01-04T14:29:44;16.1;;;6.6;;
72123;SDS011;63818;37.134;-8.548;2023-01-04T14:34:34;20.9;;;9.0;;
72123;SDS011;63818;37.134;-8.548;2023-01-04T14:39:39;22.4;;;10.0;;
72123;SDS011;63818;37.134;-8.548;2023-01-04T14:44:29;17.5;;;8.0;;
72123;SDS011;63818;37.134;-8.548;2023-01-04T14:49:18;15.2;;;7.7;;
72123;SDS011;63818;37.134;-8.548;2023-01-04T14:54:05;12.1;;;7.3;;
72123;SDS011;63818;37.134;-8.548;2023-01-04T14:58:51;12.8;;;7.3;;
72123;SDS011;63818;37.134;-8.548;2023-01-04T15:03:37;20.2;;;7.8;;
72123;SDS011;63818;37.134;-8.548;2023-01-04T15:08:23;20.4;;;7.5;;
72123;SDS011;63818;37.134;-8.548;2023-01-04T15:13:09;15.6;;;7.9;;
72123;SDS011;63818;37.134;-8.548;2023-01-04T15:17:55;14.4;;;8.0;;
72123;SDS011;63818;37.134;-8.548;2023-01-04T15:22:43;13.9;;;7.5;;
72123;SDS011;63818;37.134;-8.548;2023-01-04T15:27:31;13.8;;;7.8;;
72123;SDS011;63818;37.134;-8.548;2023-01-04T15:32:18;13.1;;;7.8;;
72123;SDS011;63818;37.134;-8.548;2023-01-04T15:37:03;12.8;;;7.9;;
72123;SDS011;63818;37.134;-8.548;2023-01-04T15:41:47;14.1;;;8.0;;
72123;SDS011;63818;37.134;-8.548;2023-01-04T15:46:35;16.0;;;8.0;;
72123;SDS011;63818;37.134;-8.548;2023-01-04T15:51:20;16.1;;;7.8;;
72123;SDS011;63818;37.134;-8.548;2023-01-04T15:56:07;15.9;;;7.8;;
72123;SDS011;63818;37.134;-8.548;2023-01-04T16:00:55;16.0;;;8.2;;
72123;SDS011;63818;37.134;-8.548;2023-01-04T16:05:41;16.9;;;8.0;;
72123;SDS011;63818;37.134;-8.548;2023-01-04T16:10:37;15.1;;;7.7;;
72123;SDS011;63818;37.134;-8.548;2023-01-04T16:15:23;14.0;;;7.8;;
72123;SDS011;63818;37.134;-8.548;2023-01-04T16:20:16;15.5;;;8.3;;
72123;SDS011;63818;37.134;-8.548;2023-01-04T16:25:02;17.0;;;8.7;;
72123;SDS011;63818;37.134;-8.548;2023-01-04T16:29:49;22.0;;;10.2;;
72123;SDS011;63818;37.134;-8.548;2023-01-04T16:34:40;22.2;;;10.8;;
72123;SDS011;63818;37.134;-8.548;2023-01-04T16:39:29;17.5;;;9.5;;
72123;SDS011;63818;37.134;-8.548;2023-01-04T16:44:15;19.2;;;9.2;;
72123;SDS011;63818;37.134;-8.548;2023-01-04T16:49:08;18.9;;;9.1;;
72123;SDS011;63818;37.134;-8.548;2023-01-04T16:53:58;15.6;;;9.7;;
72123;SDS011;63818;37.134;-8.548;2023-01-04T16:58:49;27.5;;;10.0;;
72123;SDS011;63818;37.134;-8.548;2023-01-04T17:03:36;18.4;;;9.6;;
72123;SDS011;63818;37.134;-8.548;2023-01-04T17:08:27;14.4;;;8.7;;
72123;SDS011;63818;37.134;-8.548;2023-01-04T17:13:13;15.6;;;8.1;;
72123;SDS011;63818;37.134;-8.548;2023-01-04T17:18:06;16.7;;;9.1;;
72123;SDS011;63818;37.134;-8.548;2023-01-04T17:22:54;18.4;;;9.7;;
72123;SDS011;63818;37.134;-8.548;2023-01-04T17:27:39;24.5;;;12.0;;
72123;SDS011;63818;37.134;-8.548;2023-01-04T17:32:25;25.8;;;13.3;;
72123;SDS011;63818;37.134;-8.548;2023-01-04T17:37:11;24.1;;;12.5;;
72123;SDS011;63818;37.134;-8.548;2023-01-04T17:42:02;-1.0;;;-1.0;;
72123;SDS011;63818;37.134;-8.548;2023-01-04T17:46:51;-1.0;;;-1.0;;
72123;SDS011;63818;37.134;-8.548;2023-01-04T17:51:39;-1.0;;;-1.0;;
72123;SDS011;63818;37.134;-8.548;2023-01-04T17:56:34;-1.0;;;-1.0;;
72123;SDS011;63818;37.134;-8.548;2023-01-04T18:01:23;-1.0;;;-1.0;;
72123;SDS011;63818;37.134;-8.548;2023-01-04T18:06:20;-1.0;;;-1.0;;
72123;SDS011;63818;37.134;-8.548;2023-01-04T18:11:11;-1.0;;;-1.0;;
72123;SDS011;63818;37.134;-8.548;2023-01-04T18:16:09;-1.0;;;-1.0;;
72123;SDS011;63818;37.134;-8.548;2023-01-04T18:21:08;-1.0;;;-1.0;;
72123;SDS011;63818;37.134;-8.548;2023-01-04T18:26:04;-1.0;;;-1.0;;
72123;SDS011;63818;37.134;-8.548;2023-01-04T18:30:52;-1.0;;;-1.0;;
72123;SDS011;63818;37.134;-8.548;2023-01-04T18:35:43;-1.0;;;-1.0;;
72123;SDS011;63818;37.134;-8.548;2023-01-04T18:40:38;-1.0;;;-1.0;;
72123;SDS011;63818;37.134;-8.548;2023-01-04T18:45:27;-1.0;;;-1.0;;
72123;SDS011;63818;37.134;-8.548;2023-01-04T18:50:16;-1.0;;;-1.0;;
72123;SDS011;63818;37.134;-8.548;2023-01-04T18:55:05;-1.0;;;-1.0;;
72123;SDS011;63818;37.134;-8.548;2023-01-04T18:59:54;-1.0;;;-1.0;;
72123;SDS011;63818;37.134;-8.548;2023-01-04T19:04:45;-1.0;;;-1.0;;
72123;SDS011;63818;37.134;-8.548;2023-01-04T19:09:35;-1.0;;;-1.0;;
72123;SDS011;63818;37.134;-8.548;2023-01-04T19:14:24;-1.0;;;-1.0;;
72123;SDS011;63818;37.134;-8.548;2023-01-04T19:19:13;-1.0;;;-1.0;;
72123;SDS011;63818;37.134;-8.548;2023-01-04T19:24:14;-1.0;;;-1.0;;
72123;SDS011;63818;37.134;-8.548;2023-01-04T19:29:03;-1.0;;;-1.0;;
72123;SDS011;63818;37.134;-8.548;2023-01-04T19:33:52;-1.0;;;-1.0;;
72123;SDS011;63818;37.134;-8.548;2023-01-04T19:38:42;-1.0;;;-1.0;;
72123;SDS011;63818;37.134;-8.548;2023-01-04T19:43:34;-1.0;;;-1.0;;
72123;SDS011;63818;37.134;-8.548;2023-01-04T19:48:25;-1.0;;;-1.0;;
72123;SDS011;63818;37.134;-8.548;2023-01-04T19:53:15;-1.0;;;-1.0;;
72123;SDS011;63818;37.134;-8.548;2023-01-04T19:58:03;-1.0;;;-1.0;;
72123;SDS011;63818;37.134;-8.548;2023-01-04T20:02:52;-1.0;;;-1.0;;
72123;SDS011;63818;37.134;-8.548;2023-01-04T20:07:43;-1.0;;;-1.0;;
72123;SDS011;63818;37.134;-8.548;2023-01-04T20:12:31;-1.0;;;-1.0;;
72123;SDS011;63818;37.134;-8.548;2023-01-04T20:17:23;-1.0;;;-1.0;;
72123;SDS011;63818;37.134;-8.548;2023-01-04T20:22:11;-1.0;;;-1.0;;
72123;SDS011;63818;37.134;-8.548;2023-01-04T20:27:00;-1.0;;;-1.0;;
72123;SDS011;63818;37.134;-8.548;2023-01-04T20:31:49;-1.0;;;-1.0;;
72123;SDS011;63818;37.134;-8.548;2023-01-04T20:36:39;-1.0;;;-1.0;;
72123;SDS011;63818;37.134;-8.548;2023-01-04T20:41:28;-1.0;;;-1.0;;
72123;SDS011;63818;37.134;-8.548;2023-01-04T20:46:17;-1.0;;;-1.0;;
72123;SDS011;63818;37.134;-8.548;2023-01-04T20:51:07;-1.0;;;-1.0;;
72123;SDS011;63818;37.134;-8.548;2023-01-04T20:56:02;-1.0;;;-1.0;;
72123;SDS011;63818;37.134;-8.548;2023-01-04T21:00:54;-1.0;;;-1.0;;
72123;SDS011;63818;37.134;-8.548;2023-01-04T21:05:43;-1.0;;;-1.0;;
72123;SDS011;63818;37.134;-8.548;2023-01-04T21:10:33;-1.0;;;-1.0;;
72123;SDS011;63818;37.134;-8.548;2023-01-04T21:15:22;-1.0;;;-1.0;;
72123;SDS011;63818;37.134;-8.548;2023-01-04T21:20:12;-1.0;;;-1.0;;
72123;SDS011;63818;37.134;-8.548;2023-01-04T21:25:03;-1.0;;;-1.0;;
72123;SDS011;63818;37.134;-8.548;2023-01-04T21:29:51;-1.0;;;-1.0;;
72123;SDS011;63818;37.134;-8.548;2023-01-04T21:34:40;-1.0;;;-1.0;;
72123;SDS011;63818;37.134;-8.548;2023-01-04T21:39:28;-1.0;;;-1.0;;
72123;SDS011;63818;37.134;-8.548;2023-01-04T21:44:17;-1.0;;;-1.0;;
72123;SDS011;63818;37.134;-8.548;2023-01-04T21:49:07;-1.0;;;-1.0;;
72123;SDS011;63818;37.134;-8.548;2023-01-04T21:53:56;-1.0;;;-1.0;;
72123;SDS011;63818;37.134;-8.548;2023-01-04T21:58:45;-1.0;;;-1.0;;
72123;SDS011;63818;37.134;-8.548;2023-01-04T22:03:34;-1.0;;;-1.0;;
72123;SDS011;63818;37.134;-8.548;2023-01-04T22:08:22;-1.0;;;-1.0;;
72123;SDS011;63818;37.134;-8.548;2023-01-04T22:13:11;-1.0;;;-1.0;;
72123;SDS011;63818;37.134;-8.548;2023-01-04T22:17:59;-1.0;;;-1.0;;
72123;SDS011;63818;37.134;-8.548;2023-01-04T22:22:48;-1.0;;;-1.0;;
72123;SDS011;63818;37.134;-8.548;2023-01-04T22:27:37;-1.0;;;-1.0;;
72123;SDS011;63818;37.134;-8.548;2023-01-04T22:32:25;-1.0;;;-1.0;;
72123;SDS011;63818;37.134;-8.548;2023-01-04T22:37:15;-1.0;;;-1.0;;
72123;SDS011;63818;37.134;-8.548;2023-01-04T22:42:04;-1.0;;;-1.0;;
72123;SDS011;63818;37.134;-8.548;2023-01-04T22:46:53;-1.0;;;-1.0;;
72123;SDS011;63818;37.134;-8.548;2023-01-04T22:51:41;-1.0;;;-1.0;;
72123;SDS011;63818;37.134;-8.548;2023-01-04T22:56:30;-1.0;;;-1.0;;
72123;SDS011;63818;37.134;-8.548;2023-01-04T23:01:21;-1.0;;;-1.0;;
72123;SDS011;63818;37.134;-8.548;2023-01-04T23:06:11;-1.0;;;-1.0;;
72123;SDS011;63818;37.134;-8.548;2023-01-04T23:11:04;-1.0;;;-1.0;;
72123;SDS011;63818;37.134;-8.548;2023-01-04T23:15:55;-1.0;;;-1.0;;
72123;SDS011;63818;37.134;-8.548;2023-01-04T23:20:43;-1.0;;;-1.0;;
72123;SDS011;63818;37.134;-8.548;2023-01-04T23:25:41;-1.0;;;-1.0;;
72123;SDS011;63818;37.134;-8.548;2023-01-04T23:30:30;-1.0;;;-1.0;;
72123;SDS011;63818;37.134;-8.548;2023-01-04T23:35:18;-1.0;;;-1.0;;
72123;SDS011;63818;37.134;-8.548;2023-01-04T23:40:09;-1.0;;;-1.0;;
72123;SDS011;63818;37.134;-8.548;2023-01-04T23:44:58;-1.0;;;-1.0;;
72123;SDS011;63818;37.134;-8.548;2023-01-04T23:49:47;-1.0;;;-1.0;;
72123;SDS011;63818;37.134;-8.548;2023-01-04T23:54:38;-1.0;;;-1.0;;
72123;SDS011;63818;37.134;-8.548;2023-01-04T23:59:30;-1.0;;;-1.0;;
